PWSweather.com
Personal Weather Stations
Station Observations
KWAGIGHA17
Gig Harbor, WA 98332

Gig Harbor, WA 98332

Lat: 47.35323, Lon: -122.58817

Elevation: 318

Station Type: Davis VP2 Wireless

http://www.gigharborweather.com

Latest ConditionsUpdated 4:30:09 AM PST Wednesday, Nov 26, 2014
Currently Today's Max Today's Min Today's Average
Temperature 54.4°F12.4°C 54.8°F12.7°C 54.4°F12.4°C 54.7°F12.6°C
Dew Point 52.4°F11.3°C 52.8°F11.6°C 52.4°F11.3°C 52.7°F11.5°C
Winds 5.0 mph SE8.0 kmh SE 6.8 mph SSW10.9 kmh SSW - 3.1 mph 5.0 kmh
Wind Gusts 6.0 mph9.7 kmh 18.0 mph29.0 kmh - -
Humidity 93% 93% 93% 93%
Pressure 30.14 in1020.7 mb 30.18 in1022.0 mb 30.14 in1020.7 mb -
Precipitation - 0.03 in0.8 mm - -
Hour Temp Dew Point Humidity Winds Wind Gusts Pressure Precip Precip Rate Daily Precip Total
04:30 AM 54.4°F12.4°C 52.4°F11.3°C 93% 5.0 mph SE8.0 kmh SE 6.0 mph9.7 kmh 30.14 in1020.7 mb 0.00 in0.0 mm 0.00 in/hr0.0 mm/hr 0.03 in0.8 mm
04:20 AM 54.4°F12.4°C 52.4°F11.3°C 93% 2.2 mph SW3.5 kmh SW 2.0 mph3.2 kmh 30.15 in1021.0 mb 0.00 in0.0 mm 0.00 in/hr0.0 mm/hr 0.03 in0.8 mm
04:10 AM 54.4°F12.4°C 52.4°F11.3°C 93% 1.4 mph W2.3 kmh W 3.0 mph4.8 kmh 30.15 in1021.0 mb 0.00 in0.0 mm 0.00 in/hr0.0 mm/hr 0.03 in0.8 mm
04:00 AM 54.5°F12.5°C 52.5°F11.4°C 93% 3.6 mph SW5.8 kmh SW 6.0 mph9.7 kmh 30.15 in1021.0 mb 0.00 in0.0 mm 0.00 in/hr0.0 mm/hr 0.03 in0.8 mm
03:50 AM 54.5°F12.5°C 52.5°F11.4°C 93% 3.2 mph S5.1 kmh S 6.0 mph9.7 kmh 30.15 in1021.0 mb 0.00 in0.0 mm 0.00 in/hr0.0 mm/hr 0.03 in0.8 mm
03:40 AM 54.5°F12.5°C 52.5°F11.4°C 93% 3.4 mph SW5.5 kmh SW 5.0 mph8.0 kmh 30.15 in1021.0 mb 0.00 in0.0 mm 0.00 in/hr0.0 mm/hr 0.03 in0.8 mm
03:30 AM 54.6°F12.6°C 52.6°F11.4°C 93% 2.3 mph SW3.7 kmh SW 7.0 mph11.3 kmh 30.16 in1021.3 mb 0.01 in0.3 mm 0.06 in/hr1.5 mm/hr 0.03 in0.8 mm
03:20 AM 54.6°F12.6°C 52.6°F11.4°C 93% 4.3 mph S6.9 kmh S 8.0 mph12.9 kmh 30.16 in1021.3 mb 0.00 in0.0 mm 0.00 in/hr0.0 mm/hr 0.02 in0.5 mm
03:10 AM 54.6°F12.6°C 52.6°F11.4°C 93% 3.0 mph SW4.8 kmh SW 9.0 mph14.5 kmh 30.16 in1021.3 mb 0.00 in0.0 mm 0.00 in/hr0.0 mm/hr 0.02 in0.5 mm
03:00 AM 54.6°F12.6°C 52.6°F11.4°C 93% 2.2 mph WSW3.5 kmh WSW 5.0 mph8.0 kmh 30.17 in1021.7 mb 0.00 in0.0 mm 0.00 in/hr0.0 mm/hr 0.02 in0.5 mm
02:50 AM 54.6°F12.6°C 52.6°F11.4°C 93% 2.1 mph S3.4 kmh S 8.0 mph12.9 kmh 30.17 in1021.7 mb 0.00 in0.0 mm 0.00 in/hr0.0 mm/hr 0.02 in0.5 mm
02:40 AM 54.6°F12.6°C 52.6°F11.4°C 93% 2.3 mph SW3.7 kmh SW 6.0 mph9.7 kmh 30.17 in1021.7 mb 0.00 in0.0 mm 0.00 in/hr0.0 mm/hr 0.02 in0.5 mm
02:30 AM 54.6°F12.6°C 52.6°F11.4°C 93% 4.3 mph SW6.9 kmh SW 6.0 mph9.7 kmh 30.17 in1021.7 mb 0.00 in0.0 mm 0.00 in/hr0.0 mm/hr 0.02 in0.5 mm
02:20 AM 54.6°F12.6°C 52.7°F11.5°C 93% 3.7 mph WSW6.0 kmh WSW 5.0 mph8.0 kmh 30.17 in1021.7 mb 0.00 in0.0 mm 0.00 in/hr0.0 mm/hr 0.02 in0.5 mm
02:10 AM 54.6°F12.6°C 52.7°F11.5°C 93% 4.4 mph WSW7.1 kmh WSW 9.0 mph14.5 kmh 30.16 in1021.3 mb 0.00 in0.0 mm 0.00 in/hr0.0 mm/hr 0.02 in0.5 mm
02:00 AM 54.7°F12.6°C 52.7°F11.5°C 93% 4.1 mph SSE6.6 kmh SSE 8.0 mph12.9 kmh 30.17 in1021.7 mb 0.00 in0.0 mm 0.00 in/hr0.0 mm/hr 0.02 in0.5 mm
01:50 AM 54.7°F12.6°C 52.7°F11.5°C 93% 5.9 mph WSW9.5 kmh WSW 9.0 mph14.5 kmh 30.17 in1021.7 mb 0.00 in0.0 mm 0.00 in/hr0.0 mm/hr 0.02 in0.5 mm
01:40 AM 54.7°F12.6°C 52.7°F11.5°C 93% 1.8 mph SW2.9 kmh SW 7.0 mph11.3 kmh 30.17 in1021.7 mb 0.00 in0.0 mm 0.00 in/hr0.0 mm/hr 0.02 in0.5 mm
01:30 AM 54.8°F12.7°C 52.8°F11.6°C 93% 0.7 mph SW1.1 kmh SW 4.0 mph6.4 kmh 30.16 in1021.3 mb 0.01 in0.3 mm 0.06 in/hr1.5 mm/hr 0.02 in0.5 mm
01:20 AM 54.8°F12.7°C 52.8°F11.6°C 93% 1.4 mph SSW2.3 kmh SSW 1.0 mph1.6 kmh 30.17 in1021.7 mb 0.00 in0.0 mm 0.00 in/hr0.0 mm/hr 0.01 in0.3 mm
01:10 AM 54.8°F12.7°C 52.8°F11.6°C 93% 4.0 mph S6.4 kmh S 6.0 mph9.7 kmh 30.17 in1021.7 mb 0.00 in0.0 mm 0.00 in/hr0.0 mm/hr 0.01 in0.3 mm
01:00 AM 54.8°F12.7°C 52.8°F11.6°C 93% 3.0 mph SW4.8 kmh SW 9.0 mph14.5 kmh 30.17 in1021.7 mb 0.00 in0.0 mm 0.00 in/hr0.0 mm/hr 0.01 in0.3 mm
12:50 AM 54.8°F12.7°C 52.8°F11.6°C 93% 1.0 mph ESE1.6 kmh ESE 15.0 mph24.1 kmh 30.17 in1021.7 mb 0.00 in0.0 mm 0.00 in/hr0.0 mm/hr 0.01 in0.3 mm
12:40 AM 54.8°F12.7°C 52.8°F11.6°C 93% 3.2 mph WSW5.1 kmh WSW 6.0 mph9.7 kmh 30.17 in1021.7 mb 0.00 in0.0 mm 0.00 in/hr0.0 mm/hr 0.01 in0.3 mm
12:30 AM 54.8°F12.7°C 52.8°F11.6°C 93% 3.2 mph SW5.1 kmh SW 6.0 mph9.7 kmh 30.17 in1021.7 mb 0.00 in0.0 mm 0.00 in/hr0.0 mm/hr 0.01 in0.3 mm
12:20 AM 54.8°F12.7°C 52.8°F11.6°C 93% 6.8 mph SSW10.9 kmh SSW 18.0 mph29.0 kmh 30.17 in1021.7 mb 0.00 in0.0 mm 0.00 in/hr0.0 mm/hr 0.01 in0.3 mm
12:10 AM 54.8°F12.7°C 52.8°F11.6°C 93% 1.6 mph SW2.6 kmh SW 2.0 mph3.2 kmh 30.18 in1022.0 mb 0.01 in0.3 mm 0.06 in/hr1.5 mm/hr 0.01 in0.3 mm
12:00 AM 54.8°F12.7°C 52.8°F11.6°C 93% 2.7 mph S4.3 kmh S 6.0 mph9.7 kmh 30.18 in1022.0 mb 0.00 in0.0 mm 0.00 in/hr0.0 mm/hr 0.00 in0.0 mm